Slide Mountain Weather observations

Data are for 10 minute period ending at time listed.
 Day   Time   Solar   Ave.   Ave.  Ave.  Vector  Max.    Baro.  
  of    of     Rad.   Air    Rel.  Wind   Wind   Wind   Press.  
Year   Day            Temp.  Hum.  Speed  Dir.   Gust           
2017   (PST)  Kw/m2    F      %     mph   deg.    mph     mb.   
-----------------------------------------------------------------
 112    7:30   0.35   33.8    51   50.9   139     62.8    717.9 
 112    7:40   0.35   33.8    51   53.4   133     67.8    718.2 
 112    7:50   0.39   33.7    56   54.1   138     64.6    719.0 
 112    8:00   0.44   34.0    53   54.2   137     63.5    719.9 
 112    8:10   0.46   34.2    49   54.1   140     66.3    719.9 
 112    8:20   0.48   34.7    43   55.2   136     66.1    719.8 
 112    8:30   0.48   34.9    44   55.4   141     74.6    720.0 
 112    8:40   0.54   35.3    45   54.8   143     69.4    719.9 
 112    8:50   0.58   35.9    43   53.0   142     70.7    720.3 
 112    9:00   0.60   36.1    45   53.9   144     66.9    720.0 
 112    9:10   0.63   36.6    44   51.8   141     64.8    719.8 
 112    9:20   0.66   36.8    42   54.7   139     69.8    719.2 
 112    9:30   0.68   37.0    43   51.0   144     65.4    719.3 
 112    9:40   0.70   37.3    42   51.4   143     67.4    719.0 
 112    9:50   0.72   37.4    41   53.5   141     68.1    719.0 
 112   10:00   0.69   37.4    43   53.1   135     66.9    719.8 
 112   10:10   0.73   37.6    45   54.3   137     69.8    721.0 
 112   10:20   0.77   37.6    44   58.6   137     72.3    721.0 
 112   10:30   0.79   38.0    46   55.7   143     70.7    720.8 
 112   10:40   0.80   38.3    46   54.2   138     66.3    720.6 
 112   10:50   0.81   38.3    47   56.4   140     72.8    720.6 
 112   11:00   0.82   38.2    50   56.5   148     72.8    720.5 
 112   11:10   0.83   38.6    50   61.7   135     80.2    720.4 
 112   11:20   0.90   38.9    52   60.5   138     75.2    720.4 
 112   11:30   0.83   38.9    54   61.6   138     80.9    720.2 
 112   11:40   0.85   38.8    55   62.3   136     80.4    720.1 
 112   11:50   0.77   39.0    55   59.4   137     73.7    719.9 
 112   12:00   0.83   39.2    55   58.8   136     73.0    720.1 
 112   12:10   0.82   39.2    57   59.4   140     72.3    720.0 
 112   12:20   0.86   39.4    56   59.4   141     75.8    719.9 
 112   12:30   0.88   39.5    56   58.3   139     74.9    719.9 
 112   12:40   0.85   39.7    52   59.5   146     73.1    719.8 
 112   12:50   0.80   39.8    50   60.5   142     76.2    719.8 
 112   13:00   0.64   39.4    51   60.3   143     74.1    719.5 
 112   13:10   0.58   39.3    51   62.7   139     79.3    719.4 
 112   13:20   0.62   39.1    53   62.2   139     78.7    719.5 
 112   13:30   0.58   39.0    53   63.0   139     79.6    719.3 
 112   13:40   0.53   38.9    56   60.3   140     74.9    719.2 
 112   13:50   0.65   39.0    56   62.0   140     82.4    719.5 
 112   14:00   0.65   39.0    57   64.5   139     78.1    719.5 
 112   14:10   0.60   38.7    57   66.4   140     80.0    719.3 
 112   14:20   0.51   38.4    59   62.9   142     80.1    719.2 
 112   14:30   0.55   38.3    60   66.6   143     82.6    719.2 
 112   14:40   0.52   38.2    60   66.5   144     81.9    719.2 
 112   14:50   0.52   38.2    60   62.8   141     78.7    719.2 
 112   15:00   0.32   37.5    62   60.7   143     79.1    718.9 
 112   15:10   0.26   37.1    66   58.4   147     77.4    718.7 
 112   15:20   0.31   37.2    62   52.6   138     71.4    718.8 
 112   15:30   0.32   37.1    61   53.7   140     68.2    718.9 
 112   15:40   0.25   36.7    61   54.2   141     68.2    718.7 
 112   15:50   0.33   36.7    60   54.1   145     70.6    718.8 
 112   16:00   0.28   36.3    62   54.9   140     72.7    718.8 
 112   16:10   0.26   35.7    63   55.8   144     71.6    718.7 
 112   16:20   0.26   35.5    65   55.3   146     67.3    718.7 
 112   16:30   0.22   35.2    64   56.1   141     71.1    718.6 
 112   16:40   0.24   35.1    65   51.7   142     64.9    718.6 
 112   16:50   0.24   35.3    61   53.8   140     73.0    718.7 
 112   17:00   0.13   34.5    62   52.2   137     67.5    718.4 
 112   17:10   0.08   34.1    63   52.0   137     69.8    718.2 
 112   17:20   0.07   34.0    62   50.5   140     63.5    718.1 
 112   17:30   0.07   33.9    62   52.2   133     68.9    718.1 
 112   17:40   0.08   33.8    62   50.0   138     65.9    718.0 
 112   17:50   0.09   34.0    60   50.3   134     66.9    717.9 
 112   18:00   0.08   33.8    57   52.9   139     68.5    717.9 
 112   18:10   0.06   33.4    52   55.8   139     69.9    717.8 
 112   18:20   0.05   33.1    50   60.3   140     73.5    717.7 
 112   18:30   0.03   32.4    55   55.1   131     72.6    717.7 
 112   18:40   0.01   31.9    58   53.9   142     70.0    717.6 
 112   18:50   0.00   31.5    60   53.8   138     65.3    717.5 
 112   19:00   0.00   31.2    60   56.0   144     72.7    717.5 
 112   19:10   0.00   31.1    61   57.0   142     73.1    717.4 
 112   19:20   0.00   30.9    67   57.0   139     76.0    717.3 
 112   19:30   0.00   31.3    72   57.0   140     77.3    717.3 
 112   19:40   0.00   31.0    71   53.6   141     67.4    717.2 
 112   19:50   0.00   30.8    70   53.0   139     70.1    717.2 
 112   20:00   0.00   30.5    72   53.0   142     66.5    717.1 
 112   20:10   0.00   30.7    71   55.8   139     71.3    717.1 
 112   20:20   0.00   31.3    66   62.5   141     77.3    717.0 
 112   20:30   0.00   32.0    57   62.2   145     84.1    717.0 
 112   20:40   0.00   32.3    54   65.7   137     78.7    717.0 
 112   20:50   0.00   31.9    61   62.4   136     76.0    717.0 
 112   21:00   0.00   32.3    57   60.1   139     73.4    716.8 
 112   21:10   0.00   32.1    57   57.1   144     68.1    716.8 
 112   21:20   0.00   31.9    58   57.2   138     68.0    716.8 
 112   21:30   0.00   31.5    61   56.3   136     67.6    716.9 
 112   21:40   0.00   31.4    63   52.8   136     65.7    716.8 
 112   21:50   0.00   30.9    72   51.7   142     63.6    716.8 
 112   22:00   0.00   30.4    80   50.2   139     62.7    716.8 
 112   22:10   0.00   30.3    79   52.1   139     61.9    716.8 
 112   22:20   0.00   30.2    81   51.8   140     62.1    716.8 
 112   22:30   0.00   29.9    89   52.3   140     68.3    716.8 
 112   22:40   0.00   29.5    90   54.2   140     68.6    716.9 
 112   22:50   0.00   29.8    87   55.7   140     67.2    716.9 
 112   23:00   0.00   30.2    80   55.6   140     66.8    716.8 
 112   23:10   0.00   30.3    73   54.5   143     64.8    716.8 
 112   23:20   0.00   30.4    65   53.6   138     66.3    716.8 
 112   23:30   0.00   30.5    62   54.8   141     66.1    716.9 
 112   23:40   0.00   30.4    62   55.2   141     68.2    716.9 
 112   23:50   0.00   30.3    60   57.4   133     66.0    716.9 
 113    0:00   0.00   30.4    56   58.0   132     69.7    716.9 
 113    0:10   0.00   30.3    58   58.2   138     69.2    717.0 
 113    0:20   0.00   30.3    58   54.2   136     67.6    717.0 
 113    0:30   0.00   30.1    62   52.3   139     65.6    716.9 
 113    0:40   0.00   30.1    60   52.6   137     65.4    716.9 
 113    0:50   0.00   30.0    62   54.1   145     66.9    716.9 
 113    1:00   0.00   29.8    61   55.4   140     69.2    716.9 
 113    1:10   0.00   30.0    55   56.3   138     71.9    716.9 
 113    1:20   0.00   30.5    45   57.2   138     71.0    717.0 
 113    1:30   0.00   30.7    41   56.1   142     67.6    717.0 
 113    1:40   0.00   30.5    44   57.3   140     71.0    716.9 
 113    1:50   0.00   30.4    45   55.4   140     66.6    716.9 
 113    2:00   0.00   30.2    47   57.1   141     71.2    716.9 
 113    2:10   0.00   30.0    49   56.8   138     71.0    716.9 
 113    2:20   0.00   29.8    51   56.5   140     68.0    716.9 
 113    2:30   0.00   29.8    52   57.3   143     70.3    716.9 
 113    2:40   0.00   29.5    57   55.7   134     70.9    717.0 
 113    2:50   0.00   29.2    60   54.4   140     67.4    717.0 
 113    3:00   0.00   29.1    58   54.4   149     69.0    717.0 
 113    3:10   0.00   29.0    57   53.8   135     69.1    717.0 
 113    3:20   0.00   28.8    61   52.4   141     65.4    717.0 
 113    3:30   0.00   28.6    64   53.0   142     65.4    717.0 
 113    3:40   0.00   28.5    66   53.9   149     65.0    717.0 
 113    3:50   0.00   29.0    58   57.7   150     70.7    717.0 
 113    4:00   0.00   29.2    49   59.0   154     72.0    717.0 
 113    4:10   0.00   29.1    48   56.0   142     67.8    717.0 
 113    4:20   0.00   28.7    55   54.7   148     64.0    717.0 
 113    4:30   0.00   28.5    58   55.2   144     66.6    717.0 
 113    4:40   0.00   28.8    53   56.0   147     70.3    717.0 
 113    4:50   0.00   28.9    50   57.9   150     70.7    717.0 
 113    5:00   0.00   28.6    53   60.1   149     72.7    716.9 
 113    5:10   0.00   28.0    57   58.3   153     71.9    716.9 
 113    5:20   0.00   27.8    55   57.4   145     70.2    716.9 
 113    5:30   0.01   27.6    54   55.2   150     68.1    716.9 
 113    5:40   0.01   27.7    53   53.0   145     65.9    716.9 
 113    5:50   0.02   27.8    55   48.7   141     59.0    717.0 
 113    6:00   0.03   27.9    56   42.6   141     55.9    717.0 
 113    6:10   0.04   27.6    64   36.4   144     44.0    717.1 
 113    6:20   0.06   27.4    70   32.7   139     42.0    717.1 
 113    6:30   0.06   27.4    72   34.5   151     43.4    717.2 
 113    6:40   0.07   27.7    67   39.2   155     47.2    717.3 
 113    6:50   0.11   28.3    62   42.1   152     54.7    717.4 
 113    7:00   0.13   28.6    60   39.0   146     52.0    717.4 
 113    7:10   0.23   28.3    63   40.5   146     48.3    717.5 
 113    7:20   0.26   28.9    56   40.8   147     54.9    717.6 

Return to Slide Mountain graphs page.


Western Regional Climate Center,wrcc@dri.edu